»·PEaware :: DAL648 KLAS-KPHX

DAL648 :: KLAS-KPHX

FLIGHT INFORMATION

Flight Status: Arrived
Operator:
Delta Air Lines
More flights by this operator :: More flights under this callsign
Pilot: Ben F. (2808)
Aircraft: BOEING 727-200
(B722)
More flights by this aircraft type
Origin: KLAS McCarran Intl
United States
Destination: KPHX Phoenix Sky Harbor Intl
United States
More flights between these airports :: More routes between these airports
Route: + / DRK COYOT4
File this flight plan on PilotEdge
Remarks:
Altitude:
(Current/Filed)
29,000ft
Speed:
(Current/Filed)
489kts
Departed: 26-Nov-18 03:50 PM
Arrived: 26-Nov-18 04:37 PM
Distance/Time
Traveled:
222nm/0:47
Distance/Time
To Go:
Arrived

Flight Plot

Page will automatically refresh every two minutes.

Flight plan parsing failed; only flown route is shown


Map Options




Map Legend


Flown Route
Filed Route
Departure Airport
Arrival Airport
Navaid (VOR, NDB)
Fix

Horizontal Profiles

Position Reports

Time Latitude Longitude Heading Altitude Ground
Speed
26-Nov-18 15:38 36.079811 -115.139533 355 2153ft 0kts
26-Nov-18 15:39 36.079811 -115.139533 355 2153ft 0kts
26-Nov-18 15:40 36.079811 -115.139533 355 2153ft 0kts
26-Nov-18 15:41 36.079811 -115.139533 355 2153ft 0kts
26-Nov-18 15:42 36.079811 -115.139533 355 2153ft 0kts
26-Nov-18 15:43 36.079676 -115.139519 354 2153ft 2kts
26-Nov-18 15:44 36.079276 -115.139156 271 2153ft 2kts
26-Nov-18 15:45 36.079400 -115.138827 224 2153ft 0kts
26-Nov-18 15:46 36.079400 -115.138828 224 2153ft 0kts
26-Nov-18 15:47 36.079392 -115.138838 224 2153ft 1kts
26-Nov-18 15:48 36.078289 -115.139130 106 2153ft 15kts
26-Nov-18 15:49 36.078249 -115.130685 89 2153ft 27kts
26-Nov-18 15:50 36.078067 -115.122468 123 2153ft 11kts
26-Nov-18 15:51 36.077387 -115.121468 150 2153ft 0kts
26-Nov-18 15:52 36.076411 -115.122182 268 2153ft 0kts
26-Nov-18 15:53 36.076380 -115.138834 271 2154ft 155kts
26-Nov-18 15:54 36.079636 -115.196810 278 4331ft 173kts
26-Nov-18 15:55 36.054186 -115.244929 202 5857ft 228kts
26-Nov-18 15:56 35.985947 -115.279671 202 8286ft 286kts
26-Nov-18 15:57 35.910445 -115.318233 202 10957ft 320kts
26-Nov-18 15:58 35.827405 -115.299841 125 13338ft 343kts
26-Nov-18 15:59 35.800393 -115.187044 101 15875ft 354kts
26-Nov-18 16:00 35.782741 -115.066863 95 18210ft 364kts
26-Nov-18 16:01 35.773651 -114.942308 91 20283ft 371kts
26-Nov-18 16:02 35.762261 -114.814220 92 22092ft 382kts
26-Nov-18 16:03 35.749062 -114.683253 92 23675ft 392kts
26-Nov-18 16:04 35.734900 -114.548634 92 25059ft 401kts
26-Nov-18 16:05 35.720399 -114.411033 91 26285ft 410kts
26-Nov-18 16:06 35.705674 -114.272738 92 27367ft 418kts
26-Nov-18 16:07 35.690312 -114.130051 91 28370ft 426kts
26-Nov-18 16:08 35.674350 -113.983547 91 29215ft 434kts
26-Nov-18 16:09 35.657744 -113.832466 92 29239ft 459kts
26-Nov-18 16:10 35.640069 -113.673996 92 29237ft 477kts
26-Nov-18 16:11 35.630053 -113.510905 87 29232ft 486kts
26-Nov-18 16:12 35.558600 -113.368418 133 29241ft 521kts
26-Nov-18 16:13 35.452450 -113.254868 135 29238ft 522kts
26-Nov-18 16:14 35.342355 -113.139398 135 29252ft 522kts
26-Nov-18 16:15 35.232305 -113.024444 135 29247ft 523kts
26-Nov-18 16:16 35.121596 -112.909268 134 29248ft 524kts
26-Nov-18 16:17 35.010339 -112.793930 134 29244ft 526kts
26-Nov-18 16:18 34.899965 -112.679897 134 29244ft 526kts
26-Nov-18 16:19 34.794295 -112.568232 133 27686ft 510kts
26-Nov-18 16:20 34.690847 -112.458534 135 25739ft 484kts
26-Nov-18 16:21 34.590123 -112.356562 135 23737ft 464kts
26-Nov-18 16:22 34.495222 -112.261215 136 21799ft 450kts
26-Nov-18 16:23 34.385014 -112.196548 163 19810ft 447kts
26-Nov-18 16:24 34.266286 -112.164803 165 17846ft 437kts
26-Nov-18 16:25 34.149583 -112.140108 177 15743ft 404kts
26-Nov-18 16:26 34.050146 -112.145393 177 13114ft 318kts
26-Nov-18 16:27 33.966881 -112.144412 178 13037ft 315kts
26-Nov-18 16:28 33.876015 -112.140898 164 13020ft 353kts
26-Nov-18 16:29 33.786083 -112.113306 164 12754ft 325kts
26-Nov-18 16:30 33.708400 -112.089734 164 11006ft 274kts
26-Nov-18 16:31 33.637054 -112.068497 164 9112ft 260kts
26-Nov-18 16:32 33.568868 -112.048099 164 7222ft 251kts
26-Nov-18 16:33 33.517745 -112.006544 93 5374ft 233kts
26-Nov-18 16:34 33.515204 -111.930089 91 4025ft 225kts
26-Nov-18 16:35 33.512950 -111.852817 90 3996ft 217kts
26-Nov-18 16:36 33.473762 -111.817984 184 4028ft 215kts
26-Nov-18 16:37 33.439234 -111.862907 275 3570ft 208kts
26-Nov-18 16:38 33.440609 -111.930829 270 2252ft 189kts
26-Nov-18 16:39 33.440801 -111.983275 272 1352ft 140kts
26-Nov-18 16:40 33.440169 -112.007328 189 1146ft 6kts
26-Nov-18 16:41 33.438676 -112.007355 178 1146ft 12kts

Navigation Log

Ident Type
Flight plan parsing failed, navigation log unavailable